Time;durP1;ratioP1;P1;durP2;ratioP2;P2;SDS_P1;SDS_P2;PMS_P1;PMS_P2;Temp;Humidity;BMP_temperature;BMP_pressure;BME280_temperature;BME280_humidity;BME280_pressure;Samples;Min_cycle;Max_cycle;Signal;HPM_P1;HPM_P2
2022/02/01 00:01:41;;;;;;;51.83;23.43;;;;;;;-0.49;72.70;94605.16;1790876;80;21053;-74
2022/02/01 00:04:07;;;;;;;42.67;21.23;;;;;;;-0.55;72.43;94602.98;1792754;80;21019;-73
2022/02/01 00:09:21;;;;;;;43.60;18.93;;;;;;;-0.58;73.25;94621.06;1793028;79;21046;-73
2022/02/01 00:11:51;;;;;;;36.47;15.20;;;;;;;-0.61;73.03;94608.95;1790750;80;21510;-73
2022/02/01 00:33:26;;;;;;;66.47;27.40;;;;;;;-0.53;73.91;94615.09;1792954;79;21057;-73
2022/02/01 00:35:46;;;;;;;63.43;28.53;;;;;;;-0.47;73.12;94609.94;1788657;80;21022;-74
2022/02/01 00:40:38;;;;;;;39.47;16.70;;;;;;;-0.64;73.55;94602.45;1793145;80;21057;-74
2022/02/01 00:43:06;;;;;;;32.17;13.60;;;;;;;-0.59;73.53;94594.30;1793049;80;20998;-74
2022/02/01 00:45:33;;;;;;;40.73;16.50;;;;;;;-0.52;72.84;94590.04;1793112;80;20966;-74
2022/02/01 00:48:00;;;;;;;33.70;16.07;;;;;;;-0.61;72.95;94582.19;1793192;80;21065;-74
2022/02/01 00:50:27;;;;;;;34.50;13.60;;;;;;;-0.71;72.93;94586.42;1788516;80;21014;-74
2022/02/01 00:52:53;;;;;;;38.50;15.10;;;;;;;-0.77;72.93;94582.50;1787810;80;21472;-74
2022/02/01 00:55:19;;;;;;;49.70;23.93;;;;;;;-0.79;73.08;94584.20;1787841;80;20954;-74
2022/02/01 00:57:46;;;;;;;68.30;26.90;;;;;;;-0.82;73.55;94581.16;1787620;80;21061;-74
2022/02/01 01:00:13;;;;;;;88.03;35.10;;;;;;;-0.83;73.88;94583.32;1787359;80;21536;-74
2022/02/01 01:02:40;;;;;;;87.50;37.13;;;;;;;-0.83;74.43;94584.62;1787824;80;21014;-73
2022/02/01 01:05:07;;;;;;;27.80;11.83;;;;;;;-0.79;74.20;94586.36;1787639;80;21010;-73
2022/02/01 01:07:34;;;;;;;20.13;8.50;;;;;;;-0.79;73.94;94582.91;1787667;80;21018;-73
2022/02/01 01:10:03;;;;;;;17.63;8.07;;;;;;;-0.82;74.12;94588.06;1787589;80;21480;-74
2022/02/01 01:12:33;;;;;;;35.23;14.73;;;;;;;-0.86;74.62;94588.45;1787787;80;21018;-73
2022/02/01 01:44:49;;;;;;;41.60;17.93;;;;;;;-0.69;74.44;94574.36;1787672;80;20994;-73
2022/02/01 01:55:38;;;;;;;18.77;7.70;;;;;;;-0.38;73.15;94572.84;1787725;80;20994;-73
2022/02/01 01:58:07;;;;;;;20.43;10.00;;;;;;;-0.41;73.11;94562.90;1787771;80;21018;-73
2022/02/01 02:03:21;;;;;;;17.03;7.47;;;;;;;-0.39;73.16;94561.19;1787790;80;21098;-73
2022/02/01 02:05:47;;;;;;;21.67;8.13;;;;;;;-0.31;72.75;94561.66;1787675;80;20987;-74
2022/02/01 02:08:14;;;;;;;23.00;8.43;;;;;;;-0.28;72.08;94566.00;1787647;80;21034;-73
2022/02/01 02:10:56;;;;;;;17.33;8.50;;;;;;;-0.36;72.08;94562.50;1787646;80;21038;-74
2022/02/01 02:16:01;;;;;;;51.18;20.97;;;;;;;-0.74;74.02;94560.06;1787786;80;20975;-74
2022/02/01 02:18:33;;;;;;;60.03;25.10;;;;;;;-0.89;74.65;94553.03;1787666;80;21019;-74
2022/02/01 02:21:03;;;;;;;47.47;20.20;;;;;;;-0.98;75.11;94548.23;1788103;80;21006;-74
2022/02/01 02:23:29;;;;;;;50.17;23.60;;;;;;;-0.89;74.69;94543.97;1787709;80;21074;-74
2022/02/01 02:25:57;;;;;;;47.13;21.83;;;;;;;-0.78;74.35;94547.97;1787851;80;20998;-74
2022/02/01 02:28:24;;;;;;;37.60;16.13;;;;;;;-0.83;74.39;94545.77;1787525;80;21059;-74
2022/02/01 02:30:52;;;;;;;32.67;14.87;;;;;;;-0.81;74.54;94546.63;1787506;80;21492;-74
2022/02/01 02:33:20;;;;;;;30.40;13.07;;;;;;;-0.77;74.23;94540.62;1787578;80;21471;-73
2022/02/01 02:36:09;;;;;;;33.80;14.87;;;;;;;-0.81;73.91;94544.03;1787740;80;21336;-74
2022/02/01 02:38:40;;;;;;;32.03;15.87;;;;;;;-0.93;74.11;94543.96;1787219;80;20987;-73
2022/02/01 02:41:24;;;;;;;34.90;13.73;;;;;;;-0.87;74.34;94547.45;1787210;80;21417;-73
2022/02/01 02:46:25;;;;;;;15.57;6.30;;;;;;;-0.78;73.77;94552.25;1787637;80;21053;-74
2022/02/01 02:48:53;;;;;;;21.70;6.70;;;;;;;-0.82;73.34;94551.37;1787657;80;21018;-73
2022/02/01 02:51:20;;;;;;;29.10;12.47;;;;;;;-0.90;73.28;94553.05;1787550;80;21014;-74
2022/02/01 02:53:47;;;;;;;26.40;11.30;;;;;;;-0.90;73.66;94554.34;1787562;80;21029;-73
2022/02/01 02:56:15;;;;;;;30.43;12.07;;;;;;;-0.90;73.60;94557.79;1787600;80;20983;-74
2022/02/01 02:58:41;;;;;;;29.20;11.23;;;;;;;-0.86;73.87;94558.67;1787588;80;21011;-74
2022/02/01 03:01:08;;;;;;;30.67;11.30;;;;;;;-0.94;73.54;94565.08;1787636;80;20998;-74
2022/02/01 03:03:35;;;;;;;23.30;11.77;;;;;;;-0.96;73.45;94565.92;1787356;80;21496;-74
2022/02/01 03:06:08;;;;;;;20.43;10.60;;;;;;;-0.99;73.92;94569.78;1787730;80;20990;-74
2022/02/01 03:08:36;;;;;;;24.30;9.13;;;;;;;-1.10;73.60;94574.44;1787670;80;21018;-73
2022/02/01 03:11:10;;;;;;;18.10;7.50;;;;;;;-1.12;73.92;94576.14;1787588;80;20987;-73
2022/02/01 03:13:35;;;;;;;18.17;7.03;;;;;;;-1.14;73.96;94585.60;1786980;80;21082;-73
2022/02/01 03:21:13;;;;;;;12.47;4.43;;;;;;;-1.01;74.03;94577.52;1787800;80;21006;-74
2022/02/01 03:23:40;;;;;;;15.33;4.57;;;;;;;-0.95;73.96;94584.07;1787502;80;21042;-74
2022/02/01 03:26:07;;;;;;;9.53;5.37;;;;;;;-0.93;73.33;94584.95;1787829;80;21037;-74
2022/02/01 03:28:33;;;;;;;16.00;5.87;;;;;;;-1.02;73.30;94591.33;1787539;80;21026;-73
2022/02/01 03:31:00;;;;;;;13.47;4.53;;;;;;;-1.06;73.22;94592.58;1787660;80;20986;-74
2022/02/01 03:33:26;;;;;;;9.10;3.77;;;;;;;-1.12;73.54;94599.87;1787484;80;21797;-74
2022/02/01 03:35:52;;;;;;;9.27;3.73;;;;;;;-1.07;73.91;94600.78;1787706;80;20990;-73
2022/02/01 03:38:19;;;;;;;12.10;3.07;;;;;;;-1.12;73.18;94607.20;1787357;80;21018;-74
2022/02/01 03:40:46;;;;;;;12.30;3.97;;;;;;;-1.13;73.24;94605.91;1787510;80;21193;-74
2022/02/01 03:43:13;;;;;;;6.47;2.20;;;;;;;-1.08;73.41;94605.53;1787749;80;21006;-73
2022/02/01 03:45:39;;;;;;;6.50;2.20;;;;;;;-1.12;73.52;94612.81;1787527;80;21053;-74
2022/02/01 03:48:06;;;;;;;7.53;2.37;;;;;;;-1.13;73.70;94611.95;1787634;80;21058;-73
2022/02/01 03:50:33;;;;;;;5.57;2.17;;;;;;;-1.17;73.50;94608.88;1787379;80;21050;-74
2022/02/01 03:52:59;;;;;;;4.40;2.20;;;;;;;-1.23;73.36;94616.59;1787512;80;21457;-74
2022/02/01 03:55:25;;;;;;;9.73;2.57;;;;;;;-1.28;73.74;94618.69;1787523;80;20975;-74
2022/02/01 03:57:52;;;;;;;8.87;3.10;;;;;;;-1.29;74.06;94616.94;1787797;80;20979;-74
2022/02/01 04:00:19;;;;;;;20.17;8.53;;;;;;;-1.26;74.15;94619.16;1787373;80;20999;-73
2022/02/01 04:02:46;;;;;;;13.83;4.73;;;;;;;-1.26;73.77;94617.86;1787393;80;21038;-74
2022/02/01 04:05:12;;;;;;;10.03;3.73;;;;;;;-1.29;73.60;94611.77;1787649;80;21018;-74
2022/02/01 04:07:45;;;;;;;6.40;2.80;;;;;;;-1.20;74.27;94612.73;1787547;80;21090;-74
2022/02/01 04:10:08;;;;;;;20.80;8.93;;;;;;;-1.20;74.55;94615.75;1786613;80;21030;-74
2022/02/01 04:12:35;;;;;;;25.73;10.70;;;;;;;-1.21;75.16;94611.41;1787470;80;21492;-74
2022/02/01 04:15:01;;;;;;;52.87;23.20;;;;;;;-1.27;75.04;94625.59;1787665;80;21015;-74
2022/02/01 04:17:28;;;;;;;50.73;23.33;;;;;;;-1.27;75.22;94610.06;1787182;80;21003;-73
2022/02/01 04:19:54;;;;;;;56.03;24.27;;;;;;;-1.39;75.93;94610.36;1787349;80;21050;-74
2022/02/01 04:22:21;;;;;;;72.70;29.20;;;;;;;-1.38;76.13;94603.48;1787829;80;21545;-78
2022/02/01 04:24:47;;;;;;;84.50;33.07;;;;;;;-1.37;76.08;94602.19;1787715;80;21014;-78
2022/02/01 04:27:31;;;;;;;74.77;31.87;;;;;;;-1.38;75.83;94606.94;1787591;80;21572;-78
2022/02/01 04:30:06;;;;;;;;;;;;;;;-1.36;75.78;94603.95;1790361;80;21524;-79
2022/02/01 04:32:37;;;;;;;81.03;35.40;;;;;;;-1.23;75.66;94613.14;1787554;80;20100;-78
2022/02/01 04:35:06;;;;;;;65.23;27.07;;;;;;;-1.13;75.46;94621.01;1787670;80;21023;-78
2022/02/01 04:37:33;;;;;;;59.40;26.90;;;;;;;-1.07;74.99;94622.78;1787746;80;21023;-79
2022/02/01 04:40:00;;;;;;;56.67;27.47;;;;;;;-1.00;74.87;94628.47;1787762;80;21030;-79
2022/02/01 04:42:30;;;;;;;68.37;29.30;;;;;;;-0.96;74.41;94631.95;1787782;80;21122;-79
2022/02/01 04:44:55;;;;;;;64.87;29.73;;;;;;;-0.96;74.47;94628.06;1787543;80;21030;-79
2022/02/01 04:47:22;;;;;;;59.70;27.50;;;;;;;-0.89;74.46;94628.13;1787352;80;21574;-77
2022/02/01 04:49:48;;;;;;;65.70;29.03;;;;;;;-0.81;74.24;94633.81;1787642;80;21041;-75
2022/02/01 04:52:14;;;;;;;45.40;20.67;;;;;;;-0.72;74.41;94629.59;1792887;80;21061;-76
2022/02/01 04:54:41;;;;;;;47.10;20.53;;;;;;;-0.67;73.85;94625.32;1793215;79;20978;-76
2022/02/01 04:57:07;;;;;;;41.83;17.80;;;;;;;-0.69;73.54;94627.45;1793351;80;21006;-75
2022/02/01 04:59:34;;;;;;;42.20;19.00;;;;;;;-0.71;73.16;94638.23;1793268;79;20979;-75
2022/02/01 05:02:00;;;;;;;39.43;17.77;;;;;;;-0.77;73.10;94648.11;1793272;80;21049;-75
2022/02/01 05:04:27;;;;;;;35.47;15.87;;;;;;;-0.83;73.12;94641.99;1793395;80;21049;-75
2022/02/01 05:06:54;;;;;;;30.70;13.63;;;;;;;-0.97;73.79;94646.62;1793022;80;21065;-75
2022/02/01 05:09:25;;;;;;;33.13;13.97;;;;;;;-1.08;74.08;94646.95;1793135;79;21025;-75
2022/02/01 05:11:53;;;;;;;29.57;12.67;;;;;;;-1.11;74.43;94650.77;1793270;80;21014;-75
2022/02/01 05:14:25;;;;;;;29.47;12.17;;;;;;;-1.12;74.84;94648.62;1793468;79;21432;-75
2022/02/01 05:22:03;;;;;;;42.67;19.10;;;;;;;-0.92;74.57;94674.72;1793267;80;21085;-76
2022/02/01 05:24:30;;;;;;;35.83;17.73;;;;;;;-0.96;75.01;94668.20;1793110;79;21525;-76
2022/02/01 05:26:58;;;;;;;61.40;29.50;;;;;;;-0.98;74.87;94685.03;1793350;79;21500;-76
2022/02/01 05:29:25;;;;;;;91.60;39.07;;;;;;;-0.97;74.46;94680.71;1793232;80;21049;-76
2022/02/01 05:31:52;;;;;;;79.97;36.70;;;;;;;-1.00;74.29;94695.78;1792748;80;21137;-76
2022/02/01 05:34:20;;;;;;;85.00;40.00;;;;;;;-1.00;74.81;94694.49;1793232;79;20998;-76
2022/02/01 05:36:47;;;;;;;79.87;38.87;;;;;;;-0.98;74.78;94698.41;1793147;79;21065;-76
2022/02/01 05:39:24;;;;;;;72.60;31.87;;;;;;;-0.92;74.78;94698.46;1792971;79;21023;-76
2022/02/01 05:41:52;;;;;;;50.63;25.03;;;;;;;-0.85;74.72;94705.88;1793352;80;21021;-76
2022/02/01 05:44:19;;;;;;;33.90;15.43;;;;;;;-0.77;74.16;94702.50;1793403;80;20997;-76
2022/02/01 05:46:46;;;;;;;24.53;11.03;;;;;;;-0.70;73.52;94706.03;1793179;80;21507;-76
2022/02/01 05:49:12;;;;;;;15.53;4.87;;;;;;;-0.68;72.91;94708.19;1792825;80;21053;-76
2022/02/01 05:51:40;;;;;;;22.57;7.83;;;;;;;-0.68;73.14;94709.48;1792907;79;20966;-76
2022/02/01 05:54:06;;;;;;;16.83;6.90;;;;;;;-0.70;73.15;94715.10;1793218;80;21003;-76
2022/02/01 05:56:32;;;;;;;18.57;5.30;;;;;;;-0.66;72.51;94719.04;1793217;80;21457;-76
2022/02/01 05:58:59;;;;;;;13.87;5.40;;;;;;;-0.65;71.74;94721.20;1792782;80;20955;-76
2022/02/01 06:01:25;;;;;;;20.23;8.03;;;;;;;-0.68;71.92;94725.02;1793321;79;21026;-75
2022/02/01 06:03:52;;;;;;;12.20;5.37;;;;;;;-0.74;72.10;94736.20;1792833;79;21018;-78
2022/02/01 06:06:18;;;;;;;13.83;5.53;;;;;;;-0.78;71.29;94734.85;1792534;80;21484;-80
2022/02/01 06:08:45;;;;;;;15.87;6.43;;;;;;;-0.84;71.67;94736.09;1792418;80;21045;-76
2022/02/01 06:11:11;;;;;;;13.97;6.37;;;;;;;-0.89;71.76;94735.60;1792330;79;21021;-79
2022/02/01 06:13:38;;;;;;;16.50;7.13;;;;;;;-0.85;71.82;94743.00;1792053;79;21076;-77
2022/02/01 06:16:05;;;;;;;19.57;8.27;;;;;;;-0.90;71.44;94744.23;1791681;80;21080;-75
2022/02/01 06:18:33;;;;;;;16.70;6.73;;;;;;;-0.90;72.32;94748.12;1792259;79;20978;-81
2022/02/01 06:21:00;;;;;;;13.83;6.10;;;;;;;-0.88;72.41;94755.48;1763812;80;21034;-83
2022/02/01 06:23:27;;;;;;;13.47;6.43;;;;;;;-0.85;73.30;94763.72;1792303;80;21088;-79
2022/02/01 06:25:56;;;;;;;22.27;7.27;;;;;;;-0.84;73.55;94761.98;1792351;80;21500;-81
2022/02/01 06:28:25;;;;;;;18.37;7.40;;;;;;;-0.74;73.71;94764.69;1791394;79;21642;-85
2022/02/01 06:30:53;;;;;;;17.40;7.13;;;;;;;-0.63;73.72;94770.02;1791869;79;21057;-81
2022/02/01 06:33:20;;;;;;;28.33;12.30;;;;;;;-0.63;72.77;94772.61;1792210;79;21045;-80
2022/02/01 06:35:47;;;;;;;29.40;12.37;;;;;;;-0.64;72.46;94776.46;1792469;80;21002;-78
2022/02/01 06:38:14;;;;;;;27.77;11.70;;;;;;;-0.66;72.39;94779.92;1792350;80;21069;-77
2022/02/01 06:40:44;;;;;;;19.80;9.77;;;;;;;-0.65;72.26;94779.48;1792258;80;21515;-79
2022/02/01 06:43:12;;;;;;;24.70;9.93;;;;;;;-0.64;72.15;94785.09;1792411;80;20998;-80
2022/02/01 06:45:39;;;;;;;21.93;7.80;;;;;;;-0.67;72.00;94787.66;1792317;79;21002;-82
2022/02/01 06:48:05;;;;;;;26.63;8.60;;;;;;;-0.52;72.19;94793.44;1792581;79;21017;-82
2022/02/01 06:50:33;;;;;;;24.43;8.60;;;;;;;-0.41;70.80;94797.44;1791939;80;21057;-80
2022/02/01 06:53:02;;;;;;;18.73;7.67;;;;;;;-0.39;70.47;94792.71;1795794;79;21508;-81
2022/02/01 06:58:13;;;;;;;18.73;8.20;;;;;;;-0.34;69.83;94798.81;1795357;80;21057;-81
2022/02/01 07:00:41;;;;;;;16.73;7.50;;;;;;;-0.27;69.51;94788.09;1794951;80;21104;-81
2022/02/01 07:03:09;;;;;;;29.43;12.50;;;;;;;-0.34;67.89;94794.92;1795486;79;20995;-75
2022/02/01 07:05:35;;;;;;;33.90;14.13;;;;;;;-0.29;68.75;94797.56;1795483;80;21037;-76
2022/02/01 07:08:02;;;;;;;28.73;11.13;;;;;;;-0.26;68.56;94795.00;1796135;79;20994;-79
2022/02/01 07:10:30;;;;;;;83.77;34.33;;;;;;;-0.20;68.61;94792.88;1795162;79;21029;-78
2022/02/01 07:12:56;;;;;;;57.87;20.07;;;;;;;-0.20;68.33;94792.48;1795435;79;21037;-81
2022/02/01 07:15:23;;;;;;;35.40;17.77;;;;;;;-0.23;67.62;94783.36;1795783;79;20966;-79
2022/02/01 07:17:53;;;;;;;20.47;9.10;;;;;;;-0.20;67.81;94794.18;1795914;79;20966;-79
2022/02/01 07:20:21;;;;;;;66.20;28.00;;;;;;;-0.30;67.24;94786.77;1796231;80;21100;-77
2022/02/01 07:22:49;;;;;;;76.07;41.57;;;;;;;-0.28;67.54;94795.00;1783820;80;20966;-81
2022/02/01 07:25:31;;;;;;;42.50;23.13;;;;;;;-0.21;67.92;94792.02;1764474;80;21056;-78
2022/02/01 07:28:03;;;;;;;20.30;8.07;;;;;;;-0.13;67.96;94793.39;1764493;81;21522;-79
2022/02/01 07:30:30;;;;;;;23.85;8.58;;;;;;;-0.06;67.38;94792.59;1763170;81;22334;-79
2022/02/01 07:32:58;;;;;;;33.53;15.47;;;;;;;0.01;67.75;94790.94;1762799;81;21008;-79
2022/02/01 07:35:25;;;;;;;30.33;9.63;;;;;;;0.04;67.07;94792.25;1763326;81;21064;-78
2022/02/01 07:37:53;;;;;;;52.93;37.20;;;;;;;0.11;66.83;94797.51;1763813;81;21025;-79
2022/02/01 07:40:21;;;;;;;34.67;19.20;;;;;;;0.10;66.51;94804.86;1763759;81;21513;-78
2022/02/01 07:42:48;;;;;;;29.07;13.67;;;;;;;0.06;66.60;94802.22;1764096;81;21008;-77
2022/02/01 07:45:18;;;;;;;15.97;7.50;;;;;;;0.07;66.79;94807.84;1762602;81;21625;-82
2022/02/01 07:47:44;;;;;;;18.60;7.33;;;;;;;0.02;65.92;94806.49;1763387;81;21032;-82
2022/02/01 07:50:12;;;;;;;17.60;6.77;;;;;;;0.08;66.50;94802.67;1762935;81;21080;-76
2022/02/01 07:52:38;;;;;;;19.87;6.17;;;;;;;0.09;66.09;94806.13;1756948;81;21114;-76
2022/02/01 07:55:07;;;;;;;17.87;6.40;;;;;;;0.22;66.05;94801.48;1755333;82;21074;-79
2022/02/01 07:57:33;;;;;;;23.63;7.43;;;;;;;0.33;65.68;94793.38;1755665;82;21082;-81
2022/02/01 08:00:00;;;;;;;22.13;7.27;;;;;;;0.41;65.15;94790.39;1756295;82;21509;-84
2022/02/01 08:02:26;;;;;;;19.03;7.00;;;;;;;0.46;64.56;94793.47;1756072;81;20972;-80
2022/02/01 08:04:53;;;;;;;20.57;7.03;;;;;;;0.57;64.91;94793.09;1755940;82;21537;-83
2022/02/01 08:07:21;;;;;;;21.57;7.47;;;;;;;0.67;64.56;94786.24;1755929;82;21024;-82
2022/02/01 08:09:53;;;;;;;14.53;7.17;;;;;;;0.74;64.46;94791.91;1754978;82;21063;-78
2022/02/01 08:16:26;;;;;;;16.90;7.70;;;;;;;0.78;63.89;94790.65;1755912;82;21051;-79
2022/02/01 08:17:39;;;;;;;25.43;13.43;;;;;;;0.83;63.73;94800.64;1745647;82;21019;-78
2022/02/01 08:20:03;;;;;;;15.53;7.50;;;;;;;0.83;63.77;94800.64;1727835;83;21638;-77
2022/02/01 08:22:49;;;;;;;23.53;11.53;;;;;;;0.95;64.45;94795.05;1729753;83;21018;-82
2022/02/01 08:25:03;;;;;;;25.30;8.10;;;;;;;1.03;63.48;94792.95;1728663;83;21014;-77
2022/02/01 08:27:31;;;;;;;21.60;7.83;;;;;;;0.99;63.66;94795.09;1756203;81;21008;-80
2022/02/01 08:29:59;;;;;;;21.43;7.60;;;;;;;1.00;64.16;94788.16;1755844;81;21102;-82
2022/02/01 08:32:26;;;;;;;23.97;11.00;;;;;;;0.99;64.66;94800.72;1756138;82;21130;-79
2022/02/01 08:34:52;;;;;;;18.70;7.17;;;;;;;1.07;64.71;94802.91;1726359;82;21047;-80
2022/02/01 08:37:19;;;;;;;21.70;7.30;;;;;;;1.13;63.97;94804.67;1756159;81;21059;-80
2022/02/01 08:39:47;;;;;;;16.17;6.23;;;;;;;0.98;63.33;94808.05;1755611;81;21023;-78
2022/02/01 08:42:13;;;;;;;17.30;8.27;;;;;;;0.96;63.77;94813.26;1756067;81;21143;-77
2022/02/01 08:44:40;;;;;;;22.80;11.00;;;;;;;0.88;63.80;94811.02;1755419;82;21537;-76
2022/02/01 08:47:08;;;;;;;37.70;13.50;;;;;;;0.85;63.91;94811.01;1756543;82;21076;-75
2022/02/01 08:49:35;;;;;;;26.77;12.07;;;;;;;0.83;64.21;94812.72;1756617;82;21032;-72
2022/02/01 08:52:05;;;;;;;33.07;14.03;;;;;;;0.89;64.74;94823.17;1757680;81;21020;-77
2022/02/01 08:54:33;;;;;;;30.87;13.47;;;;;;;0.98;64.58;94819.73;1758317;81;21075;-74
2022/02/01 08:59:46;;;;;;;23.13;8.43;;;;;;;1.10;64.72;94830.20;1758742;81;21075;-76
2022/02/01 09:02:17;;;;;;;21.47;7.87;;;;;;;1.08;64.56;94821.13;1757859;81;21036;-77
2022/02/01 09:04:44;;;;;;;21.13;7.50;;;;;;;1.13;64.99;94835.41;1758787;81;21531;-78
2022/02/01 09:07:10;;;;;;;22.80;7.90;;;;;;;1.12;64.83;94836.72;1758956;81;21100;-73
2022/02/01 09:09:38;;;;;;;21.10;8.20;;;;;;;1.14;64.66;94838.91;1758419;81;21075;-74
2022/02/01 09:12:06;;;;;;;22.93;8.60;;;;;;;1.15;65.32;94847.13;1758063;81;21522;-76
2022/02/01 09:14:32;;;;;;;23.87;9.53;;;;;;;1.16;65.05;94852.74;1759062;81;21479;-73
2022/02/01 09:17:00;;;;;;;26.30;11.30;;;;;;;1.22;64.59;94842.41;1758670;81;21091;-77
2022/02/01 09:19:28;;;;;;;21.50;9.03;;;;;;;1.23;64.97;94838.48;1734157;83;21072;-82
2022/02/01 09:21:55;;;;;;;26.53;11.47;;;;;;;1.28;64.90;94839.81;1796009;80;21088;-77
2022/02/01 09:24:21;;;;;;;20.77;9.00;;;;;;;1.25;64.46;94834.61;1795948;80;20990;-73
2022/02/01 09:26:47;;;;;;;22.40;10.40;;;;;;;1.13;64.32;94840.61;1796579;80;21094;-76
2022/02/01 09:29:14;;;;;;;28.53;14.43;;;;;;;1.01;64.09;94842.73;1795536;80;21104;-80
2022/02/01 09:31:41;;;;;;;23.87;8.80;;;;;;;0.94;64.53;94846.14;1796956;80;21113;-75
2022/02/01 09:34:08;;;;;;;56.63;31.87;;;;;;;0.83;64.68;94846.08;1795933;80;20986;-78
2022/02/01 09:36:35;;;;;;;36.70;16.63;;;;;;;0.92;64.94;94843.09;1796242;80;21074;-76
2022/02/01 09:39:05;;;;;;;20.60;9.97;;;;;;;0.82;65.46;94844.76;1796198;80;21080;-76
2022/02/01 09:41:33;;;;;;;26.90;11.53;;;;;;;0.89;65.63;94845.68;1796512;80;20986;-78
2022/02/01 09:43:59;;;;;;;28.33;11.90;;;;;;;1.00;65.82;94843.56;1794382;80;21024;-81
2022/02/01 09:46:26;;;;;;;25.23;10.60;;;;;;;1.20;65.80;94841.52;1782012;80;21595;-81
2022/02/01 09:48:53;;;;;;;27.93;11.10;;;;;;;1.33;65.67;94838.55;1782152;80;21007;-75
2022/02/01 09:51:19;;;;;;;26.93;10.90;;;;;;;1.41;65.51;94835.14;1782875;80;21699;-77
2022/02/01 09:53:46;;;;;;;27.67;11.73;;;;;;;1.53;65.20;94842.09;1793462;77;21043;-81
2022/02/01 09:56:15;;;;;;;31.47;13.13;;;;;;;1.61;64.57;94843.42;1792487;79;21524;-81
2022/02/01 09:58:42;;;;;;;22.53;11.53;;;;;;;1.62;64.62;94843.88;1793113;80;21086;-76
2022/02/01 10:01:20;;;;;;;25.27;14.60;;;;;;;1.67;64.49;94847.36;1793194;79;21624;-79
2022/02/01 10:04:09;;;;;;;27.03;11.47;;;;;;;1.75;64.50;94847.39;1793874;80;21004;-79
2022/02/01 10:06:38;;;;;;;21.60;9.90;;;;;;;1.83;64.01;94848.27;1721820;83;21059;-78
2022/02/01 10:09:13;;;;;;;23.93;10.13;;;;;;;1.80;62.58;94841.77;1733638;81;21114;-79
2022/02/01 10:11:46;;;;;;;26.03;9.93;;;;;;;1.67;62.94;94840.42;1732321;81;21503;-79
2022/02/01 10:14:23;;;;;;;26.50;10.10;;;;;;;1.54;63.47;94838.66;1735696;81;20955;-77
2022/02/01 10:16:50;;;;;;;23.90;10.40;;;;;;;1.50;64.43;94839.48;1751541;80;20971;-78
2022/02/01 10:19:14;;;;;;;29.60;10.50;;;;;;;1.57;64.11;94839.09;1754544;81;20990;-78
2022/02/01 10:21:58;;;;;;;20.77;9.63;;;;;;;1.57;63.91;94843.00;1754616;81;20966;-78
2022/02/01 10:24:34;;;;;;;;;;;;;;;1.49;63.55;94849.03;1758148;81;21033;-78
2022/02/01 10:27:14;;;;;;;23.07;9.03;;;;;;;1.29;63.53;94852.83;1758159;81;20105;-78
2022/02/01 10:38:08;;;;;;;25.47;10.03;;;;;;;1.14;65.11;94844.09;1759165;81;20985;-78
2022/02/01 10:40:45;;;;;;;24.80;10.43;;;;;;;1.12;65.12;94851.88;1742455;82;21035;-78
2022/02/01 10:43:21;;;;;;;19.67;9.63;;;;;;;1.10;65.82;94852.28;1759233;81;21021;-78
2022/02/01 10:45:51;;;;;;;48.77;19.67;;;;;;;1.05;66.46;94847.50;1742351;82;21572;-77
2022/02/01 10:48:26;;;;;;;118.83;45.13;;;;;;;1.14;66.67;94847.56;1759313;81;21078;-78
2022/02/01 10:51:18;;;;;;;46.20;20.97;;;;;;;1.19;68.09;94854.09;1741339;82;21145;-77
2022/02/01 10:53:45;;;;;;;40.20;17.20;;;;;;;1.20;68.33;94851.48;1763053;81;21107;-77
2022/02/01 10:56:16;;;;;;;48.23;20.70;;;;;;;1.24;69.22;94852.38;1820512;79;21033;-78
2022/02/01 10:58:46;;;;;;;51.53;22.60;;;;;;;1.33;69.09;94839.84;1820676;79;21113;-77
2022/02/01 11:01:13;;;;;;;45.37;19.53;;;;;;;1.36;69.29;94841.16;1820178;79;20999;-78
2022/02/01 11:03:46;;;;;;;51.03;20.67;;;;;;;1.28;69.91;94847.61;1820697;79;21017;-78
2022/02/01 11:06:14;;;;;;;32.58;15.63;;;;;;;1.28;70.07;94852.81;1821353;79;20951;-77
2022/02/01 11:08:43;;;;;;;30.57;14.53;;;;;;;1.30;70.26;94846.76;1820918;79;20974;-78
2022/02/01 11:11:18;;;;;;;38.93;15.47;;;;;;;1.29;70.19;94856.73;1821176;79;20994;-77
2022/02/01 11:13:49;;;;;;;33.00;16.00;;;;;;;1.25;71.19;94858.86;1793674;79;21018;-77
2022/02/01 11:16:25;;;;;;;32.47;16.20;;;;;;;1.25;71.20;94861.46;1821246;79;20993;-78
2022/02/01 11:19:05;;;;;;;35.43;15.83;;;;;;;1.21;71.86;94860.13;1821195;79;21104;-77
2022/02/01 11:21:47;;;;;;;36.30;16.27;;;;;;;1.19;72.25;94848.89;1821244;79;21416;-77
2022/02/01 11:24:35;;;;;;;40.03;16.27;;;;;;;1.20;72.31;94846.72;1821421;79;20955;-77
2022/02/01 11:27:27;;;;;;;30.83;14.50;;;;;;;1.23;72.37;94849.33;1821173;79;21379;-77
2022/02/01 11:30:11;;;;;;;33.27;16.30;;;;;;;1.17;72.96;94846.27;1817410;79;21014;-77
2022/02/01 11:32:19;;;;;;;31.57;14.43;;;;;;;1.22;73.10;94845.86;1808202;79;21021;-77
2022/02/01 11:34:45;;;;;;;29.40;12.65;;;;;;;1.23;72.82;94851.92;1821065;79;21556;-77
2022/02/01 11:37:15;;;;;;;22.23;12.20;;;;;;;1.23;72.44;94854.08;1821160;79;20975;-78
2022/02/01 11:39:51;;;;;;;30.13;12.80;;;;;;;1.14;73.24;94846.70;1821165;79;21066;-77
2022/02/01 11:42:20;;;;;;;27.17;10.30;;;;;;;1.14;73.02;94851.45;1821105;79;20994;-77
2022/02/01 11:44:51;;;;;;;23.27;10.57;;;;;;;1.11;73.15;94851.85;1821166;79;21052;-77
2022/02/01 11:47:21;;;;;;;23.80;11.47;;;;;;;1.08;73.69;94853.59;1804614;79;21013;-78
2022/02/01 11:49:58;;;;;;;22.43;10.10;;;;;;;1.14;73.48;94857.09;1820747;79;21568;-77
2022/02/01 11:52:28;;;;;;;23.13;9.83;;;;;;;1.14;73.22;94855.79;1819773;78;21044;-78
2022/02/01 11:55:04;;;;;;;23.27;10.53;;;;;;;1.10;73.75;94853.59;1821182;79;20975;-78
2022/02/01 11:57:32;;;;;;;24.27;9.90;;;;;;;1.15;73.43;94851.02;1821104;79;21054;-78
2022/02/01 12:00:19;;;;;;;23.07;10.93;;;;;;;1.07;73.73;94846.64;1821226;79;21098;-78
2022/02/01 12:02:58;;;;;;;22.93;10.03;;;;;;;1.05;73.95;94841.00;1821043;79;21508;-78
2022/02/01 12:05:35;;;;;;;23.13;9.77;;;;;;;1.02;74.20;94844.89;1820945;79;21050;-77
2022/02/01 12:08:13;;;;;;;25.13;11.43;;;;;;;1.02;74.52;94834.06;1821179;79;21006;-78
2022/02/01 12:10:51;;;;;;;21.10;10.63;;;;;;;1.08;74.52;94841.01;1821038;79;21481;-78
2022/02/01 12:13:22;;;;;;;33.77;15.00;;;;;;;1.10;74.09;94839.30;1821166;79;21093;-77
2022/02/01 12:15:53;;;;;;;36.20;15.40;;;;;;;1.13;73.92;94844.50;1821390;79;21480;-77
2022/02/01 12:18:52;;;;;;;30.63;14.33;;;;;;;1.15;74.26;94843.22;1821076;79;21023;-77
2022/02/01 12:21:57;;;;;;;25.10;13.93;;;;;;;1.21;74.03;94838.94;1821200;79;21025;-78
2022/02/01 12:24:27;;;;;;;31.30;16.42;;;;;;;1.26;74.10;94843.73;1820860;79;21512;-78
2022/02/01 12:26:54;;;;;;;35.23;16.83;;;;;;;1.34;73.56;94846.80;1821288;79;20990;-78
2022/02/01 12:29:21;;;;;;;36.50;17.60;;;;;;;1.39;73.41;94855.05;1821341;79;21018;-77
2022/02/01 12:31:48;;;;;;;33.43;16.57;;;;;;;1.25;72.97;94850.20;1821043;79;21460;-77
2022/02/01 12:34:17;;;;;;;39.20;17.43;;;;;;;1.08;73.52;94855.30;1821143;79;20959;-77
2022/02/01 12:36:50;;;;;;;41.10;20.83;;;;;;;0.97;73.70;94864.33;1821011;79;21067;-77
2022/02/01 12:39:24;;;;;;;46.65;23.42;;;;;;;0.93;73.90;94861.70;1821534;79;21005;-77
2022/02/01 12:42:01;;;;;;;41.65;22.20;;;;;;;0.86;74.52;94864.27;1821049;79;21512;-77
2022/02/01 12:46:56;;;;;;;35.77;17.67;;;;;;;0.81;74.91;94868.56;1820033;79;21077;-78
2022/02/01 12:49:45;;;;;;;35.77;19.03;;;;;;;0.83;74.88;94864.66;1821293;79;21544;-77
2022/02/01 12:52:24;;;;;;;34.57;17.07;;;;;;;0.83;75.26;94855.57;1821222;79;20978;-78
2022/02/01 12:55:08;;;;;;;42.67;18.53;;;;;;;0.91;74.92;94860.41;1821332;79;21010;-77
2022/02/01 12:57:36;;;;;;;37.85;18.17;;;;;;;0.94;74.86;94866.92;1821506;79;21041;-77
2022/02/01 13:00:16;;;;;;;28.30;15.60;;;;;;;0.98;74.73;94863.50;1821325;79;21006;-77
2022/02/01 13:02:44;;;;;;;36.73;16.87;;;;;;;0.95;74.47;94864.75;1821413;79;21002;-77
2022/02/01 13:05:15;;;;;;;34.53;17.10;;;;;;;1.03;74.23;94858.30;1821351;79;21033;-78
2022/02/01 13:08:23;;;;;;;31.27;16.57;;;;;;;1.04;74.10;94858.77;1821232;79;21006;-77
2022/02/01 13:15:48;;;;;;;28.63;13.03;;;;;;;1.23;73.56;94860.58;1820294;79;21021;-77
2022/02/01 13:20:04;;;;;;;33.63;14.57;;;;;;;1.21;73.11;94866.22;1820809;79;21592;-77
2022/02/01 13:21:09;;;;;;;31.20;14.68;;;;;;;1.20;73.16;94869.66;1817117;79;20982;-77